WTB9FX LEZL-LEPA
Flight info
| Callsign | WTB9FX |
|---|---|
| Flight time | 1h 18m |
| Altitude | 38000 |
| Route | MAR4R MAR DCT MGA DCT RIXUR DCT UNTOS DCT ROLAS DCT TOSGA DCT RESTU DCT ALT DCT SUMMO DCT MITOS DCT BRUNO DCT RUXET RUXET2P |
| Aircraft | B77W/H-SDE1E2E3FGHIJ2J3J4J5M1RWXY/LB1D1 |
Departure
| Time | 2026-04-26 10:59 |
|---|---|
| Airport | Seville Airport (LEZL) |
Arrival
| Time | 2026-04-26 12:18 |
|---|---|
| Airport | Palma de Mallorca Airport (LEPA) |
| Time | Latitude | Longitude | Altitude | Speed | Heading |
|---|---|---|---|---|---|
| 2026-04-26 10:09 | 37.42104 | -5.89832 | 101 ft | 0 kts | 8° |
| 2026-04-26 10:53 | 37.42122 | -5.89835 | 102 ft | 2 kts | 341° |
| 2026-04-26 10:53 | 37.42138 | -5.89853 | 103 ft | 3 kts | 295° |
| 2026-04-26 10:54 | 37.42082 | -5.89994 | 99 ft | 3 kts | 237° |
| 2026-04-26 10:54 | 37.42061 | -5.90030 | 98 ft | 6 kts | 232° |
| 2026-04-26 10:54 | 37.42027 | -5.90080 | 97 ft | 8 kts | 229° |
| 2026-04-26 10:54 | 37.41993 | -5.90145 | 95 ft | 9 kts | 247° |
| 2026-04-26 10:55 | 37.41977 | -5.90235 | 93 ft | 11 kts | 265° |
| 2026-04-26 10:55 | 37.41970 | -5.90336 | 93 ft | 11 kts | 265° |
| 2026-04-26 10:55 | 37.41969 | -5.90435 | 92 ft | 11 kts | 270° |
| 2026-04-26 10:55 | 37.41970 | -5.90533 | 92 ft | 11 kts | 270° |
| 2026-04-26 10:56 | 37.41970 | -5.90638 | 90 ft | 12 kts | 270° |
| 2026-04-26 10:56 | 37.41971 | -5.90752 | 89 ft | 13 kts | 270° |
| 2026-04-26 10:56 | 37.41974 | -5.90863 | 89 ft | 12 kts | 269° |
| 2026-04-26 10:56 | 37.41958 | -5.90958 | 90 ft | 10 kts | 245° |
| 2026-04-26 10:57 | 37.41923 | -5.91037 | 90 ft | 10 kts | 240° |
| 2026-04-26 10:57 | 37.41886 | -5.91118 | 89 ft | 10 kts | 240° |
| 2026-04-26 10:57 | 37.41832 | -5.91180 | 89 ft | 10 kts | 191° |
| 2026-04-26 10:57 | 37.41791 | -5.91151 | 89 ft | 5 kts | 108° |
| 2026-04-26 10:58 | 37.41789 | -5.91106 | 88 ft | 0 kts | 88° |
| 2026-04-26 10:58 | 37.41790 | -5.91060 | 88 ft | 13 kts | 89° |
| 2026-04-26 10:59 | 37.41791 | -5.90822 | 88 ft | 52 kts | 91° |
| 2026-04-26 10:59 | 37.41792 | -5.90019 | 93 ft | 130 kts | 89° |
| 2026-04-26 10:59 | 37.41802 | -5.88657 | 371 ft | 171 kts | 86° |
| 2026-04-26 10:59 | 37.41877 | -5.87183 | 1180 ft | 178 kts | 89° |
| 2026-04-26 11:00 | 37.41833 | -5.85673 | 1975 ft | 178 kts | 91° |
| 2026-04-26 11:00 | 37.41804 | -5.84055 | 2404 ft | 195 kts | 91° |
| 2026-04-26 11:00 | 37.41780 | -5.82287 | 2828 ft | 213 kts | 90° |
| 2026-04-26 11:00 | 37.41931 | -5.80386 | 3306 ft | 229 kts | 78° |
| 2026-04-26 11:01 | 37.42324 | -5.78349 | 3836 ft | 246 kts | 76° |
| 2026-04-26 11:01 | 37.42707 | -5.76227 | 4483 ft | 255 kts | 84° |
| 2026-04-26 11:01 | 37.42758 | -5.74004 | 5333 ft | 257 kts | 90° |
| 2026-04-26 11:01 | 37.42735 | -5.71775 | 6162 ft | 259 kts | 91° |
| 2026-04-26 11:02 | 37.42710 | -5.69514 | 6958 ft | 262 kts | 90° |
| 2026-04-26 11:02 | 37.42689 | -5.67246 | 7729 ft | 265 kts | 90° |
| 2026-04-26 11:02 | 37.42669 | -5.64915 | 8521 ft | 267 kts | 90° |
| 2026-04-26 11:02 | 37.42649 | -5.62582 | 9286 ft | 270 kts | 90° |
| 2026-04-26 11:03 | 37.42628 | -5.60235 | 10001 ft | 274 kts | 90° |
| 2026-04-26 11:03 | 37.42606 | -5.57804 | 10550 ft | 285 kts | 90° |
| 2026-04-26 11:03 | 37.42582 | -5.55270 | 10967 ft | 301 kts | 90° |
| 2026-04-26 11:03 | 37.42556 | -5.52556 | 11407 ft | 317 kts | 90° |
| 2026-04-26 11:04 | 37.42529 | -5.49735 | 11868 ft | 333 kts | 90° |
| 2026-04-26 11:04 | 37.42498 | -5.46727 | 12401 ft | 349 kts | 90° |
| 2026-04-26 11:04 | 37.42467 | -5.43633 | 12931 ft | 365 kts | 90° |
| 2026-04-26 11:04 | 37.42433 | -5.40409 | 13580 ft | 377 kts | 90° |
| 2026-04-26 11:05 | 37.42209 | -5.37084 | 14430 ft | 386 kts | 99° |
| 2026-04-26 11:05 | 37.41486 | -5.33833 | 15344 ft | 395 kts | 110° |
| 2026-04-26 11:05 | 37.40246 | -5.30733 | 16303 ft | 403 kts | 121° |
| 2026-04-26 11:05 | 37.38517 | -5.27939 | 17212 ft | 412 kts | 133° |
| 2026-04-26 11:06 | 37.36321 | -5.25574 | 18116 ft | 421 kts | 144° |
| 2026-04-26 11:06 | 37.33752 | -5.23795 | 19018 ft | 429 kts | 155° |
| 2026-04-26 11:06 | 37.31059 | -5.22188 | 19895 ft | 435 kts | 149° |
| 2026-04-26 11:06 | 37.28497 | -5.20140 | 20772 ft | 440 kts | 144° |
| 2026-04-26 11:07 | 37.25994 | -5.17891 | 21632 ft | 447 kts | 142° |
| 2026-04-26 11:07 | 37.23521 | -5.15472 | 22479 ft | 452 kts | 139° |
| 2026-04-26 11:07 | 37.21178 | -5.12879 | 23278 ft | 458 kts | 137° |
| 2026-04-26 11:07 | 37.18826 | -5.10143 | 24115 ft | 464 kts | 136° |
| 2026-04-26 11:08 | 37.16484 | -5.07353 | 24947 ft | 469 kts | 135° |
| 2026-04-26 11:08 | 37.14146 | -5.04523 | 25739 ft | 474 kts | 135° |
| 2026-04-26 11:08 | 37.11774 | -5.01620 | 26489 ft | 479 kts | 134° |
| 2026-04-26 11:08 | 37.09384 | -4.98673 | 27271 ft | 484 kts | 134° |
| 2026-04-26 11:09 | 37.07022 | -4.95674 | 28074 ft | 487 kts | 130° |
| 2026-04-26 11:09 | 37.04955 | -4.92313 | 28781 ft | 490 kts | 122° |
| 2026-04-26 11:09 | 37.03247 | -4.88591 | 29458 ft | 495 kts | 117° |
| 2026-04-26 11:09 | 37.01652 | -4.84799 | 30328 ft | 496 kts | 116° |
| 2026-04-26 11:10 | 37.00048 | -4.80970 | 31349 ft | 492 kts | 116° |
| 2026-04-26 11:10 | 36.98453 | -4.77170 | 32293 ft | 488 kts | 116° |
| 2026-04-26 11:10 | 36.96878 | -4.73423 | 33074 ft | 487 kts | 116° |
| 2026-04-26 11:10 | 36.95296 | -4.69665 | 33727 ft | 488 kts | 116° |
| 2026-04-26 11:11 | 36.93717 | -4.65922 | 34360 ft | 488 kts | 116° |
| 2026-04-26 11:11 | 36.92129 | -4.62161 | 34883 ft | 487 kts | 116° |
| 2026-04-26 11:11 | 36.90568 | -4.58472 | 35336 ft | 488 kts | 116° |
| 2026-04-26 11:11 | 36.88972 | -4.54704 | 35751 ft | 489 kts | 116° |
| 2026-04-26 11:12 | 36.87378 | -4.50944 | 36139 ft | 490 kts | 116° |
| 2026-04-26 11:12 | 36.85888 | -4.47163 | 36612 ft | 489 kts | 110° |
| 2026-04-26 11:12 | 36.84832 | -4.43129 | 37100 ft | 488 kts | 102° |
| 2026-04-26 11:12 | 36.84283 | -4.39008 | 37470 ft | 487 kts | 93° |
| 2026-04-26 11:13 | 36.84237 | -4.34762 | 37809 ft | 487 kts | 85° |
| 2026-04-26 11:13 | 36.84702 | -4.30582 | 38062 ft | 487 kts | 76° |
| 2026-04-26 11:13 | 36.87045 | -4.22725 | 38099 ft | 484 kts | 61° |
| 2026-04-26 11:14 | 36.90105 | -4.15309 | 38100 ft | 481 kts | 61° |
| 2026-04-26 11:14 | 36.93151 | -4.07867 | 38115 ft | 481 kts | 62° |
| 2026-04-26 11:15 | 36.96179 | -4.00397 | 38108 ft | 482 kts | 62° |
| 2026-04-26 11:15 | 36.99197 | -3.92909 | 38129 ft | 484 kts | 62° |
| 2026-04-26 11:16 | 37.02217 | -3.85382 | 38147 ft | 483 kts | 62° |
| 2026-04-26 11:16 | 37.05198 | -3.77927 | 38137 ft | 482 kts | 62° |
| 2026-04-26 11:17 | 37.08194 | -3.70414 | 38148 ft | 483 kts | 62° |
| 2026-04-26 11:17 | 37.11176 | -3.62916 | 38155 ft | 482 kts | 62° |
| 2026-04-26 11:18 | 37.14152 | -3.55414 | 38150 ft | 482 kts | 62° |
| 2026-04-26 11:18 | 37.17126 | -3.47898 | 38159 ft | 481 kts | 62° |
| 2026-04-26 11:19 | 37.20074 | -3.40428 | 38162 ft | 480 kts | 62° |
| 2026-04-26 11:19 | 37.23028 | -3.32927 | 38152 ft | 480 kts | 62° |
| 2026-04-26 11:20 | 37.25496 | -3.26647 | 38163 ft | 480 kts | 62° |
| 2026-04-26 11:20 | 37.28920 | -3.17909 | 38158 ft | 481 kts | 62° |
| 2026-04-26 11:21 | 37.31850 | -3.10409 | 38153 ft | 480 kts | 62° |
| 2026-04-26 11:21 | 37.34793 | -3.02858 | 38165 ft | 480 kts | 62° |
| 2026-04-26 11:22 | 37.37706 | -2.95371 | 38156 ft | 480 kts | 62° |
| 2026-04-26 11:22 | 37.40624 | -2.87847 | 38151 ft | 480 kts | 62° |
| 2026-04-26 11:23 | 37.43544 | -2.80303 | 38158 ft | 480 kts | 62° |
| 2026-04-26 11:23 | 37.46456 | -2.72759 | 38151 ft | 480 kts | 62° |
| 2026-04-26 11:24 | 37.49348 | -2.65250 | 38143 ft | 479 kts | 62° |
| 2026-04-26 11:24 | 37.52242 | -2.57716 | 38151 ft | 479 kts | 62° |
| 2026-04-26 11:25 | 37.55129 | -2.50186 | 38151 ft | 479 kts | 62° |
| 2026-04-26 11:25 | 37.58010 | -2.42648 | 38158 ft | 479 kts | 62° |
| 2026-04-26 11:26 | 37.60895 | -2.35084 | 38156 ft | 479 kts | 62° |
| 2026-04-26 11:26 | 37.63770 | -2.27530 | 38144 ft | 479 kts | 63° |
| 2026-04-26 11:27 | 37.66640 | -2.19975 | 38140 ft | 479 kts | 63° |
| 2026-04-26 11:27 | 37.69513 | -2.12396 | 38156 ft | 479 kts | 63° |
| 2026-04-26 11:28 | 37.72372 | -2.04834 | 38144 ft | 479 kts | 63° |
| 2026-04-26 11:28 | 37.75222 | -1.97275 | 38141 ft | 477 kts | 63° |
| 2026-04-26 11:29 | 37.78077 | -1.89687 | 38150 ft | 478 kts | 63° |
| 2026-04-26 11:29 | 37.80909 | -1.82140 | 38148 ft | 476 kts | 63° |
| 2026-04-26 11:30 | 37.83260 | -1.75861 | 38140 ft | 477 kts | 63° |
| 2026-04-26 11:30 | 37.86554 | -1.67044 | 38142 ft | 478 kts | 63° |
| 2026-04-26 11:31 | 37.89390 | -1.59430 | 38141 ft | 477 kts | 63° |
| 2026-04-26 11:31 | 37.92199 | -1.51867 | 38147 ft | 478 kts | 63° |
| 2026-04-26 11:32 | 37.95021 | -1.44249 | 38126 ft | 476 kts | 63° |
| 2026-04-26 11:32 | 37.97803 | -1.36717 | 38128 ft | 475 kts | 63° |
| 2026-04-26 11:33 | 38.00597 | -1.29137 | 38133 ft | 477 kts | 63° |
| 2026-04-26 11:33 | 38.03398 | -1.21515 | 38145 ft | 476 kts | 64° |
| 2026-04-26 11:34 | 38.06186 | -1.13911 | 38134 ft | 476 kts | 63° |
| 2026-04-26 11:34 | 38.08972 | -1.06296 | 38132 ft | 477 kts | 64° |
| 2026-04-26 11:35 | 38.11755 | -0.98667 | 38142 ft | 477 kts | 64° |
| 2026-04-26 11:35 | 38.14069 | -0.92310 | 38150 ft | 476 kts | 64° |
| 2026-04-26 11:36 | 38.17298 | -0.83414 | 38143 ft | 476 kts | 64° |
| 2026-04-26 11:36 | 38.20060 | -0.75785 | 38124 ft | 474 kts | 64° |
| 2026-04-26 11:37 | 38.22812 | -0.68166 | 38139 ft | 475 kts | 64° |
| 2026-04-26 11:37 | 38.25534 | -0.60608 | 38134 ft | 473 kts | 64° |
| 2026-04-26 11:38 | 38.28206 | -0.52915 | 38144 ft | 475 kts | 66° |
| 2026-04-26 11:38 | 38.30647 | -0.45200 | 38144 ft | 473 kts | 67° |
| 2026-04-26 11:39 | 38.33109 | -0.37429 | 38144 ft | 473 kts | 66° |
| 2026-04-26 11:39 | 38.35571 | -0.29661 | 38129 ft | 472 kts | 67° |
| 2026-04-26 11:40 | 38.38085 | -0.21973 | 38145 ft | 471 kts | 66° |
| 2026-04-26 11:40 | 38.40637 | -0.14329 | 38133 ft | 473 kts | 66° |
| 2026-04-26 11:42 | 38.50686 | 0.16478 | 38125 ft | 472 kts | 67° |
| 2026-04-26 11:43 | 38.53159 | 0.24213 | 38107 ft | 470 kts | 67° |
| 2026-04-26 11:43 | 38.55631 | 0.31960 | 38139 ft | 472 kts | 67° |
| 2026-04-26 11:44 | 38.58077 | 0.39648 | 38134 ft | 470 kts | 67° |
| 2026-04-26 11:44 | 38.60539 | 0.47406 | 38149 ft | 472 kts | 67° |
| 2026-04-26 11:45 | 38.62985 | 0.55137 | 38126 ft | 470 kts | 68° |
| 2026-04-26 11:45 | 38.65412 | 0.62833 | 38130 ft | 470 kts | 68° |
| 2026-04-26 11:46 | 38.67238 | 0.70816 | 38117 ft | 470 kts | 81° |
| 2026-04-26 11:46 | 38.68176 | 0.79083 | 38134 ft | 469 kts | 82° |
| 2026-04-26 11:47 | 38.69083 | 0.87312 | 38118 ft | 469 kts | 82° |
| 2026-04-26 11:47 | 38.69988 | 0.95557 | 38167 ft | 469 kts | 82° |
| 2026-04-26 11:48 | 38.70441 | 0.99693 | 38027 ft | 472 kts | 82° |
| 2026-04-26 11:48 | 38.70887 | 1.03782 | 38006 ft | 464 kts | 82° |
| 2026-04-26 11:48 | 38.71326 | 1.07835 | 37610 ft | 459 kts | 82° |
| 2026-04-26 11:48 | 38.71761 | 1.11853 | 36761 ft | 462 kts | 82° |
| 2026-04-26 11:49 | 38.72201 | 1.15928 | 36023 ft | 464 kts | 82° |
| 2026-04-26 11:49 | 38.72643 | 1.20043 | 35349 ft | 466 kts | 83° |
| 2026-04-26 11:49 | 38.73080 | 1.24117 | 34555 ft | 469 kts | 83° |
| 2026-04-26 11:49 | 38.73519 | 1.28227 | 33766 ft | 467 kts | 83° |
| 2026-04-26 11:50 | 38.73953 | 1.32299 | 33339 ft | 455 kts | 83° |
| 2026-04-26 11:50 | 38.74368 | 1.36213 | 33003 ft | 442 kts | 83° |
| 2026-04-26 11:50 | 38.74774 | 1.40047 | 32501 ft | 433 kts | 83° |
| 2026-04-26 11:50 | 38.75174 | 1.43845 | 31961 ft | 425 kts | 82° |
| 2026-04-26 11:51 | 38.75566 | 1.47571 | 31417 ft | 418 kts | 83° |
| 2026-04-26 11:51 | 38.75948 | 1.51217 | 30821 ft | 415 kts | 82° |
| 2026-04-26 11:51 | 38.76329 | 1.54871 | 30143 ft | 415 kts | 82° |
| 2026-04-26 11:51 | 38.76703 | 1.58462 | 29470 ft | 415 kts | 83° |
| 2026-04-26 11:52 | 38.77086 | 1.62156 | 28779 ft | 416 kts | 83° |
| 2026-04-26 11:52 | 38.77338 | 1.64586 | 28325 ft | 416 kts | 83° |
| 2026-04-26 11:52 | 38.77843 | 1.69478 | 27430 ft | 418 kts | 83° |
| 2026-04-26 11:52 | 38.78219 | 1.73141 | 26771 ft | 420 kts | 83° |
| 2026-04-26 11:53 | 38.78599 | 1.76844 | 26110 ft | 422 kts | 83° |
| 2026-04-26 11:53 | 38.78979 | 1.80567 | 25450 ft | 423 kts | 83° |
| 2026-04-26 11:53 | 38.79361 | 1.84320 | 24787 ft | 422 kts | 83° |
| 2026-04-26 11:54 | 38.80610 | 1.91572 | 23489 ft | 420 kts | 70° |
| 2026-04-26 11:54 | 38.81857 | 1.94922 | 22854 ft | 419 kts | 61° |
| 2026-04-26 11:54 | 38.83496 | 1.97994 | 22202 ft | 418 kts | 54° |
| 2026-04-26 11:54 | 38.85286 | 2.00927 | 21565 ft | 412 kts | 53° |
| 2026-04-26 11:55 | 38.87038 | 2.03787 | 20941 ft | 405 kts | 54° |
| 2026-04-26 11:55 | 38.88748 | 2.06587 | 20325 ft | 399 kts | 54° |
| 2026-04-26 11:55 | 38.90436 | 2.09361 | 19698 ft | 393 kts | 54° |
| 2026-04-26 11:55 | 38.92078 | 2.12064 | 19058 ft | 381 kts | 54° |
| 2026-04-26 11:56 | 38.93682 | 2.14713 | 18445 ft | 370 kts | 54° |
| 2026-04-26 11:56 | 38.95224 | 2.17262 | 17843 ft | 360 kts | 54° |
| 2026-04-26 11:56 | 38.96744 | 2.19778 | 17243 ft | 351 kts | 54° |
| 2026-04-26 11:56 | 38.98220 | 2.22225 | 16646 ft | 343 kts | 54° |
| 2026-04-26 11:57 | 38.99662 | 2.24621 | 16046 ft | 336 kts | 54° |
| 2026-04-26 11:57 | 39.01070 | 2.26963 | 15446 ft | 330 kts | 54° |
| 2026-04-26 11:57 | 39.02450 | 2.29259 | 14841 ft | 324 kts | 54° |
| 2026-04-26 11:57 | 39.03798 | 2.31505 | 14241 ft | 319 kts | 54° |
| 2026-04-26 11:58 | 39.05152 | 2.33761 | 13632 ft | 315 kts | 54° |
| 2026-04-26 11:58 | 39.06466 | 2.35955 | 13028 ft | 311 kts | 53° |
| 2026-04-26 11:58 | 39.07780 | 2.38147 | 12417 ft | 307 kts | 53° |
| 2026-04-26 11:58 | 39.09069 | 2.40300 | 11810 ft | 304 kts | 53° |
| 2026-04-26 11:59 | 39.10345 | 2.42433 | 11202 ft | 301 kts | 53° |
| 2026-04-26 11:59 | 39.11621 | 2.44568 | 10588 ft | 298 kts | 53° |
| 2026-04-26 11:59 | 39.12868 | 2.46655 | 10022 ft | 294 kts | 53° |
| 2026-04-26 11:59 | 39.14095 | 2.48709 | 9530 ft | 288 kts | 53° |
| 2026-04-26 12:00 | 39.15303 | 2.50726 | 9050 ft | 283 kts | 51° |
| 2026-04-26 12:00 | 39.16745 | 2.52411 | 8577 ft | 279 kts | 37° |
| 2026-04-26 12:00 | 39.18318 | 2.53816 | 8137 ft | 273 kts | 35° |
| 2026-04-26 12:00 | 39.19900 | 2.55189 | 8019 ft | 275 kts | 35° |
| 2026-04-26 12:01 | 39.21492 | 2.56573 | 8004 ft | 275 kts | 35° |
| 2026-04-26 12:01 | 39.23056 | 2.57935 | 8000 ft | 275 kts | 35° |
| 2026-04-26 12:01 | 39.24649 | 2.59323 | 8003 ft | 275 kts | 35° |
| 2026-04-26 12:01 | 39.26235 | 2.60706 | 7997 ft | 275 kts | 35° |
| 2026-04-26 12:02 | 39.27828 | 2.62095 | 7993 ft | 275 kts | 35° |
| 2026-04-26 12:02 | 39.29401 | 2.63470 | 8011 ft | 276 kts | 35° |
| 2026-04-26 12:02 | 39.31012 | 2.64877 | 8004 ft | 276 kts | 35° |
| 2026-04-26 12:02 | 39.32581 | 2.66248 | 7992 ft | 275 kts | 36° |
| 2026-04-26 12:03 | 39.34188 | 2.67654 | 7986 ft | 276 kts | 35° |
| 2026-04-26 12:03 | 39.35772 | 2.69040 | 7987 ft | 276 kts | 35° |
| 2026-04-26 12:03 | 39.37372 | 2.70441 | 7988 ft | 276 kts | 35° |
| 2026-04-26 12:03 | 39.38959 | 2.71831 | 7987 ft | 276 kts | 36° |
| 2026-04-26 12:04 | 39.40545 | 2.73222 | 8003 ft | 277 kts | 35° |
| 2026-04-26 12:04 | 39.42118 | 2.74600 | 8001 ft | 265 kts | 36° |
| 2026-04-26 12:04 | 39.43454 | 2.76127 | 7958 ft | 250 kts | 55° |
| 2026-04-26 12:04 | 39.44337 | 2.77995 | 7860 ft | 240 kts | 62° |
| 2026-04-26 12:05 | 39.45117 | 2.79889 | 7584 ft | 239 kts | 63° |
| 2026-04-26 12:05 | 39.45882 | 2.81815 | 7284 ft | 239 kts | 63° |
| 2026-04-26 12:05 | 39.46625 | 2.83702 | 7034 ft | 237 kts | 63° |
| 2026-04-26 12:05 | 39.47375 | 2.85604 | 6759 ft | 237 kts | 63° |
| 2026-04-26 12:06 | 39.48125 | 2.87511 | 6488 ft | 235 kts | 63° |
| 2026-04-26 12:06 | 39.48859 | 2.89377 | 6248 ft | 233 kts | 63° |
| 2026-04-26 12:06 | 39.49588 | 2.91239 | 5999 ft | 232 kts | 64° |
| 2026-04-26 12:06 | 39.50295 | 2.93103 | 5737 ft | 231 kts | 64° |
| 2026-04-26 12:07 | 39.51001 | 2.94973 | 5481 ft | 231 kts | 64° |
| 2026-04-26 12:07 | 39.51710 | 2.96836 | 5227 ft | 229 kts | 64° |
| 2026-04-26 12:07 | 39.52420 | 2.98693 | 4962 ft | 230 kts | 64° |
| 2026-04-26 12:07 | 39.53129 | 3.00539 | 4718 ft | 228 kts | 64° |
| 2026-04-26 12:08 | 39.53832 | 3.02360 | 4458 ft | 228 kts | 64° |
| 2026-04-26 12:08 | 39.54545 | 3.04198 | 4191 ft | 228 kts | 64° |
| 2026-04-26 12:08 | 39.55258 | 3.06021 | 4005 ft | 224 kts | 64° |
| 2026-04-26 12:08 | 39.55974 | 3.07846 | 3987 ft | 227 kts | 64° |
| 2026-04-26 12:09 | 39.56693 | 3.09679 | 3980 ft | 228 kts | 62° |
| 2026-04-26 12:09 | 39.57711 | 3.11194 | 3967 ft | 220 kts | 38° |
| 2026-04-26 12:09 | 39.58945 | 3.12304 | 3997 ft | 213 kts | 35° |
| 2026-04-26 12:09 | 39.60186 | 3.13280 | 3976 ft | 210 kts | 22° |
| 2026-04-26 12:10 | 39.61631 | 3.13431 | 3971 ft | 210 kts | 354° |
| 2026-04-26 12:10 | 39.63086 | 3.13108 | 3979 ft | 213 kts | 351° |
| 2026-04-26 12:10 | 39.64473 | 3.12416 | 3984 ft | 215 kts | 333° |
| 2026-04-26 12:10 | 39.65752 | 3.11456 | 3977 ft | 212 kts | 327° |
| 2026-04-26 12:11 | 39.66676 | 3.10003 | 3964 ft | 210 kts | 292° |
| 2026-04-26 12:11 | 39.66879 | 3.08129 | 3978 ft | 210 kts | 272° |
| 2026-04-26 12:11 | 39.66925 | 3.06244 | 3981 ft | 209 kts | 272° |
| 2026-04-26 12:11 | 39.66974 | 3.04373 | 3980 ft | 202 kts | 272° |
| 2026-04-26 12:12 | 39.67018 | 3.02611 | 3977 ft | 193 kts | 270° |
| 2026-04-26 12:12 | 39.66930 | 3.00891 | 3964 ft | 189 kts | 256° |
| 2026-04-26 12:12 | 39.66463 | 2.99306 | 3984 ft | 188 kts | 242° |
| 2026-04-26 12:12 | 39.66036 | 2.98305 | 3867 ft | 192 kts | 238° |
| 2026-04-26 12:13 | 39.65113 | 2.96354 | 3558 ft | 188 kts | 237° |
| 2026-04-26 12:13 | 39.64431 | 2.94936 | 3324 ft | 185 kts | 237° |
| 2026-04-26 12:13 | 39.63755 | 2.93520 | 3097 ft | 177 kts | 237° |
| 2026-04-26 12:13 | 39.63148 | 2.92241 | 2855 ft | 161 kts | 237° |
| 2026-04-26 12:14 | 39.62573 | 2.91026 | 2653 ft | 155 kts | 237° |
| 2026-04-26 12:14 | 39.62018 | 2.89852 | 2455 ft | 152 kts | 237° |
| 2026-04-26 12:14 | 39.61470 | 2.88692 | 2257 ft | 151 kts | 237° |
| 2026-04-26 12:14 | 39.60925 | 2.87535 | 2057 ft | 150 kts | 237° |
| 2026-04-26 12:15 | 39.60379 | 2.86381 | 1856 ft | 149 kts | 237° |
| 2026-04-26 12:15 | 39.59844 | 2.85248 | 1658 ft | 148 kts | 237° |
| 2026-04-26 12:15 | 39.59301 | 2.84100 | 1456 ft | 147 kts | 237° |
| 2026-04-26 12:15 | 39.58774 | 2.82985 | 1256 ft | 144 kts | 237° |
| 2026-04-26 12:16 | 39.58252 | 2.81882 | 1065 ft | 143 kts | 237° |
| 2026-04-26 12:16 | 39.57735 | 2.80790 | 873 ft | 140 kts | 237° |
| 2026-04-26 12:16 | 39.57230 | 2.79720 | 687 ft | 139 kts | 238° |
| 2026-04-26 12:16 | 39.56720 | 2.78643 | 498 ft | 137 kts | 238° |
| 2026-04-26 12:17 | 39.56226 | 2.77622 | 304 ft | 132 kts | 237° |
| 2026-04-26 12:17 | 39.55759 | 2.76642 | 113 ft | 122 kts | 238° |
| 2026-04-26 12:17 | 39.55338 | 2.75745 | 30 ft | 109 kts | 238° |
| 2026-04-26 12:17 | 39.55011 | 2.75033 | 31 ft | 63 kts | 239° |
| 2026-04-26 12:18 | 39.54837 | 2.74631 | 35 ft | 39 kts | 249° |
| 2026-04-26 12:18 | 39.54805 | 2.74419 | 39 ft | 0 kts | 267° |
| 2026-04-26 12:18 | 39.54804 | 2.74400 | 39 ft | 4 kts | 267° |
| 2026-04-26 12:18 | 39.54801 | 2.74332 | 41 ft | 10 kts | 266° |
| 2026-04-26 12:19 | 39.54799 | 2.74247 | 43 ft | 10 kts | 272° |
| 2026-04-26 12:19 | 39.54824 | 2.74144 | 46 ft | 13 kts | 306° |
| 2026-04-26 12:19 | 39.54901 | 2.74066 | 50 ft | 14 kts | 328° |
| 2026-04-26 12:19 | 39.54986 | 2.74000 | 54 ft | 15 kts | 328° |
| 2026-04-26 12:20 | 39.55079 | 2.73926 | 57 ft | 16 kts | 330° |
| 2026-04-26 12:20 | 39.55185 | 2.73845 | 57 ft | 18 kts | 328° |
| 2026-04-26 12:20 | 39.55296 | 2.73757 | 54 ft | 19 kts | 329° |
| 2026-04-26 12:20 | 39.55400 | 2.73675 | 46 ft | 9 kts | 328° |
| 2026-04-26 12:21 | 39.55468 | 2.73619 | 39 ft | 6 kts | 328° |
| 2026-04-26 12:21 | 39.55495 | 2.73581 | 38 ft | 3 kts | 278° |
| 2026-04-26 12:21 | 39.55487 | 2.73546 | 38 ft | 3 kts | 243° |
| 2026-04-26 12:21 | 39.55475 | 2.73517 | 39 ft | 4 kts | 244° |
| 2026-04-26 12:22 | 39.55475 | 2.73491 | 39 ft | 2 kts | 289° |
| 2026-04-26 12:22 | 39.55490 | 2.73464 | 37 ft | 6 kts | 317° |
| 2026-04-26 12:22 | 39.55512 | 2.73444 | 36 ft | 3 kts | 320° |
| 2026-04-26 12:22 | 39.55519 | 2.73420 | 35 ft | 4 kts | 281° |
| 2026-04-26 12:23 | 39.55520 | 2.73413 | 35 ft | 0 kts | 279° |